THY24 LTFM-RCTP
Flight info
| Callsign | THY24 |
|---|---|
| Flight time | N/A |
| Altitude | 33000 |
| Route | EKAWE1D/35L EKAWE UT643 GAKSU UT310 SIN UN644 ROLIN DCT FOQUS DCT LAGAS DCT DISKA M737 VERCA M747 BAGVA DCT ERLEV M11 RODAR A909 BIBIM/N0482F350 A909 LEMOD N644 REGET G325 LAKRA P500 PS T400 SULOM M890 LKN A201 BOGEP/N0487F370 A201 LSO A599 LINSO/K0887S1130 A599 POU B330 TAMOT/N0473F370 B330 BIGEX DCT DALOL V631 ENVAR M750 EXTRA/N0445F290 M750 TONGA TONGA1A |
| Aircraft | B77W/H-SDE1E2E3FGHIJ2J3J4J5M1RWXY/LB1D1 |
Departure
| Time | 2026-05-01 12:02 |
|---|---|
| Airport | İstanbul Airport (LTFM) |
Arrival
| Time | N/A |
|---|---|
| Airport | Taiwan Taoyuan International Airport (RCTP) |
| Time | Latitude | Longitude | Altitude | Speed | Heading |
|---|---|---|---|---|---|
| 2026-05-01 11:26 | 41.26802 | 28.74118 | 339 ft | 0 kts | 91° |
| 2026-05-01 11:52 | 41.26804 | 28.74086 | 337 ft | 4 kts | 98° |
| 2026-05-01 11:52 | 41.26805 | 28.74056 | 335 ft | 4 kts | 71° |
| 2026-05-01 11:52 | 41.26796 | 28.74034 | 333 ft | 4 kts | 45° |
| 2026-05-01 11:53 | 41.26780 | 28.74020 | 333 ft | 4 kts | 7° |
| 2026-05-01 11:53 | 41.26754 | 28.74020 | 334 ft | 4 kts | 358° |
| 2026-05-01 11:53 | 41.26747 | 28.74020 | 335 ft | 0 kts | 359° |
| 2026-05-01 11:56 | 41.26755 | 28.74020 | 334 ft | 6 kts | 359° |
| 2026-05-01 11:56 | 41.26856 | 28.74017 | 335 ft | 18 kts | 359° |
| 2026-05-01 11:57 | 41.26979 | 28.74015 | 334 ft | 18 kts | 359° |
| 2026-05-01 11:57 | 41.27051 | 28.73977 | 336 ft | 18 kts | 303° |
| 2026-05-01 11:57 | 41.27050 | 28.73758 | 339 ft | 18 kts | 269° |
| 2026-05-01 11:57 | 41.27048 | 28.73595 | 335 ft | 18 kts | 269° |
| 2026-05-01 11:58 | 41.27046 | 28.73429 | 335 ft | 18 kts | 269° |
| 2026-05-01 11:58 | 41.27044 | 28.73264 | 339 ft | 18 kts | 269° |
| 2026-05-01 11:58 | 41.27005 | 28.72992 | 336 ft | 10 kts | 197° |
| 2026-05-01 11:59 | 41.26930 | 28.72987 | 335 ft | 14 kts | 179° |
| 2026-05-01 11:59 | 41.26812 | 28.72989 | 336 ft | 19 kts | 179° |
| 2026-05-01 11:59 | 41.26678 | 28.72993 | 336 ft | 19 kts | 179° |
| 2026-05-01 12:00 | 41.26408 | 28.72999 | 336 ft | 21 kts | 179° |
| 2026-05-01 12:00 | 41.26251 | 28.72991 | 338 ft | 23 kts | 209° |
| 2026-05-01 12:00 | 41.26225 | 28.72548 | 335 ft | 17 kts | 307° |
| 2026-05-01 12:01 | 41.26318 | 28.72525 | 338 ft | 19 kts | 358° |
| 2026-05-01 12:01 | 41.26536 | 28.72518 | 334 ft | 54 kts | 359° |
| 2026-05-01 12:01 | 41.27111 | 28.72505 | 334 ft | 109 kts | 359° |
| 2026-05-01 12:01 | 41.28025 | 28.72483 | 334 ft | 155 kts | 358° |
| 2026-05-01 12:02 | 41.29210 | 28.72475 | 569 ft | 170 kts | 2° |
| 2026-05-01 12:02 | 41.30372 | 28.72400 | 1416 ft | 172 kts | 2° |
| 2026-05-01 12:02 | 41.31597 | 28.72398 | 2571 ft | 186 kts | 6° |
| 2026-05-01 12:02 | 41.33009 | 28.72450 | 3098 ft | 217 kts | 5° |
| 2026-05-01 12:03 | 41.34555 | 28.72487 | 3831 ft | 224 kts | 4° |
| 2026-05-01 12:03 | 41.36122 | 28.72513 | 4599 ft | 230 kts | 4° |
| 2026-05-01 12:03 | 41.37723 | 28.72523 | 5490 ft | 230 kts | 0° |
| 2026-05-01 12:03 | 41.39300 | 28.71937 | 6036 ft | 242 kts | 338° |
| 2026-05-01 12:04 | 41.40833 | 28.70913 | 6666 ft | 249 kts | 338° |
| 2026-05-01 12:04 | 41.41880 | 28.70235 | 7118 ft | 251 kts | 338° |
| 2026-05-01 12:04 | 41.43440 | 28.69232 | 8001 ft | 246 kts | 338° |
| 2026-05-01 12:04 | 41.45506 | 28.67902 | 8756 ft | 261 kts | 335° |
| 2026-05-01 12:05 | 41.47164 | 28.66836 | 9338 ft | 267 kts | 335° |
| 2026-05-01 12:05 | 41.49882 | 28.65094 | 10501 ft | 271 kts | 334° |
| 2026-05-01 12:05 | 41.51602 | 28.63992 | 10866 ft | 288 kts | 334° |
| 2026-05-01 12:06 | 41.53496 | 28.62783 | 11054 ft | 308 kts | 335° |
| 2026-05-01 12:06 | 41.55331 | 28.62064 | 11234 ft | 325 kts | 355° |
| 2026-05-01 12:06 | 41.57644 | 28.62497 | 11412 ft | 351 kts | 21° |
| 2026-05-01 12:06 | 41.59690 | 28.64411 | 11744 ft | 371 kts | 49° |
| 2026-05-01 12:07 | 41.61155 | 28.67275 | 12241 ft | 379 kts | 56° |
| 2026-05-01 12:07 | 41.62561 | 28.70329 | 12825 ft | 389 kts | 57° |
| 2026-05-01 12:07 | 41.63995 | 28.73446 | 13415 ft | 401 kts | 57° |
| 2026-05-01 12:07 | 41.65468 | 28.76608 | 13976 ft | 406 kts | 56° |
| 2026-05-01 12:08 | 41.66970 | 28.79789 | 14244 ft | 410 kts | 56° |
| 2026-05-01 12:08 | 41.68512 | 28.83023 | 14223 ft | 412 kts | 56° |
| 2026-05-01 12:08 | 41.70057 | 28.86249 | 14213 ft | 411 kts | 55° |
| 2026-05-01 12:08 | 41.71601 | 28.89469 | 14217 ft | 410 kts | 56° |
| 2026-05-01 12:09 | 41.73138 | 28.92681 | 14219 ft | 408 kts | 56° |
| 2026-05-01 12:09 | 41.74532 | 28.96000 | 14578 ft | 410 kts | 62° |
| 2026-05-01 12:09 | 41.75732 | 28.99447 | 15590 ft | 406 kts | 64° |
| 2026-05-01 12:09 | 41.76868 | 29.02898 | 16499 ft | 404 kts | 65° |
| 2026-05-01 12:10 | 41.77985 | 29.06301 | 17438 ft | 402 kts | 64° |
| 2026-05-01 12:10 | 41.80326 | 29.13276 | 18518 ft | 420 kts | 64° |
| 2026-05-01 12:10 | 41.81547 | 29.16851 | 19092 ft | 426 kts | 64° |
| 2026-05-01 12:11 | 41.84062 | 29.24170 | 20050 ft | 441 kts | 64° |
| 2026-05-01 12:11 | 41.85358 | 29.27946 | 20544 ft | 448 kts | 64° |
| 2026-05-01 12:11 | 41.86668 | 29.31771 | 21042 ft | 454 kts | 64° |
| 2026-05-01 12:12 | 41.87993 | 29.35646 | 21548 ft | 460 kts | 64° |
| 2026-05-01 12:12 | 41.89335 | 29.39575 | 22088 ft | 465 kts | 64° |
| 2026-05-01 12:12 | 41.90709 | 29.43460 | 22620 ft | 469 kts | 60° |
| 2026-05-01 12:12 | 41.92608 | 29.47046 | 23120 ft | 471 kts | 46° |
| 2026-05-01 12:13 | 41.94855 | 29.50271 | 23658 ft | 474 kts | 44° |
| 2026-05-01 12:13 | 41.97146 | 29.53519 | 24091 ft | 479 kts | 45° |
| 2026-05-01 12:13 | 41.99379 | 29.56808 | 24523 ft | 484 kts | 46° |
| 2026-05-01 12:13 | 42.01272 | 29.59694 | 24887 ft | 487 kts | 47° |
| 2026-05-01 12:14 | 42.03483 | 29.63165 | 25314 ft | 487 kts | 51° |
| 2026-05-01 12:14 | 42.05184 | 29.67148 | 25558 ft | 496 kts | 70° |
| 2026-05-01 12:14 | 42.05972 | 29.71659 | 25928 ft | 496 kts | 88° |
| 2026-05-01 12:14 | 42.05842 | 29.76284 | 26368 ft | 490 kts | 100° |
| 2026-05-01 12:15 | 42.05428 | 29.80811 | 26722 ft | 495 kts | 100° |
| 2026-05-01 12:15 | 42.05034 | 29.85427 | 27085 ft | 499 kts | 99° |
| 2026-05-01 12:15 | 42.04672 | 29.90107 | 27505 ft | 502 kts | 99° |
| 2026-05-01 12:15 | 42.04336 | 29.94792 | 27934 ft | 504 kts | 99° |
| 2026-05-01 12:16 | 42.04009 | 29.99509 | 28350 ft | 507 kts | 99° |
| 2026-05-01 12:16 | 42.03678 | 30.04243 | 28719 ft | 509 kts | 100° |
| 2026-05-01 12:16 | 42.03313 | 30.08985 | 29049 ft | 507 kts | 104° |
| 2026-05-01 12:16 | 42.02372 | 30.13515 | 29220 ft | 498 kts | 121° |
| 2026-05-01 12:17 | 42.00576 | 30.17326 | 29515 ft | 481 kts | 136° |
| 2026-05-01 12:17 | 41.98452 | 30.20821 | 29902 ft | 481 kts | 135° |
| 2026-05-01 12:17 | 41.96421 | 30.24348 | 30486 ft | 478 kts | 134° |
| 2026-05-01 12:17 | 41.94429 | 30.27921 | 30880 ft | 478 kts | 134° |
| 2026-05-01 12:18 | 41.92441 | 30.31530 | 31106 ft | 481 kts | 133° |
| 2026-05-01 12:18 | 41.90453 | 30.35148 | 31377 ft | 483 kts | 133° |
| 2026-05-01 12:18 | 41.88473 | 30.38740 | 31688 ft | 483 kts | 133° |
| 2026-05-01 12:18 | 41.86469 | 30.42360 | 31980 ft | 484 kts | 134° |
| 2026-05-01 12:19 | 41.84432 | 30.46027 | 32255 ft | 485 kts | 134° |
| 2026-05-01 12:19 | 41.82408 | 30.49663 | 32541 ft | 485 kts | 134° |
| 2026-05-01 12:19 | 41.80411 | 30.53246 | 32822 ft | 486 kts | 134° |
| 2026-05-01 12:19 | 41.78391 | 30.56894 | 33065 ft | 486 kts | 131° |
| 2026-05-01 12:20 | 41.76801 | 30.60997 | 33105 ft | 506 kts | 113° |
| 2026-05-01 12:20 | 41.76162 | 30.65711 | 33171 ft | 522 kts | 96° |
| 2026-05-01 12:20 | 41.76549 | 30.70512 | 33174 ft | 531 kts | 78° |
| 2026-05-01 12:20 | 41.77548 | 30.75306 | 33199 ft | 533 kts | 77° |
| 2026-05-01 12:21 | 41.79550 | 30.84773 | 33173 ft | 532 kts | 78° |
| 2026-05-01 12:21 | 41.81417 | 30.94399 | 33163 ft | 530 kts | 79° |
| 2026-05-01 12:22 | 41.83211 | 31.03999 | 33171 ft | 530 kts | 79° |
| 2026-05-01 12:22 | 41.85076 | 31.13593 | 33174 ft | 532 kts | 78° |
| 2026-05-01 12:23 | 41.87153 | 31.23103 | 33166 ft | 533 kts | 77° |
| 2026-05-01 12:23 | 41.89249 | 31.32682 | 33170 ft | 532 kts | 77° |
| 2026-05-01 12:24 | 41.91267 | 31.42147 | 33163 ft | 532 kts | 78° |
| 2026-05-01 12:24 | 41.93261 | 31.51595 | 33169 ft | 532 kts | 78° |
| 2026-05-01 12:25 | 41.96266 | 31.65941 | 33161 ft | 532 kts | 78° |
| 2026-05-01 12:26 | 41.98231 | 31.75536 | 33154 ft | 532 kts | 79° |
| 2026-05-01 12:26 | 42.01161 | 31.89870 | 33152 ft | 531 kts | 79° |
| 2026-05-01 12:27 | 42.04116 | 32.04271 | 33155 ft | 532 kts | 79° |
| 2026-05-01 12:28 | 42.07016 | 32.18496 | 33162 ft | 532 kts | 79° |
| 2026-05-01 12:29 | 42.10005 | 32.32945 | 33146 ft | 534 kts | 77° |
| 2026-05-01 12:29 | 42.13404 | 32.47261 | 33143 ft | 534 kts | 77° |
| 2026-05-01 12:30 | 42.16336 | 32.61645 | 33160 ft | 528 kts | 85° |
| 2026-05-01 12:31 | 42.16950 | 32.71424 | 33155 ft | 521 kts | 94° |
| 2026-05-01 12:31 | 42.17104 | 32.81203 | 33149 ft | 521 kts | 95° |
| 2026-05-01 12:32 | 42.17277 | 32.90930 | 33141 ft | 521 kts | 94° |
| 2026-05-01 12:32 | 42.17585 | 33.05620 | 33151 ft | 522 kts | 94° |
| 2026-05-01 12:33 | 42.17783 | 33.15185 | 33135 ft | 520 kts | 94° |
| 2026-05-01 12:33 | 42.17970 | 33.24787 | 33137 ft | 519 kts | 94° |
| 2026-05-01 12:34 | 42.18149 | 33.34528 | 33137 ft | 519 kts | 94° |
| 2026-05-01 12:34 | 42.18319 | 33.44221 | 33142 ft | 519 kts | 94° |
| 2026-05-01 12:35 | 42.18483 | 33.53962 | 33138 ft | 518 kts | 94° |
| 2026-05-01 12:35 | 42.18638 | 33.63672 | 33134 ft | 518 kts | 95° |
| 2026-05-01 12:36 | 42.18786 | 33.73344 | 33131 ft | 517 kts | 95° |
| 2026-05-01 12:36 | 42.18717 | 33.82987 | 33132 ft | 511 kts | 101° |
| 2026-05-01 12:37 | 42.17623 | 33.92386 | 33133 ft | 505 kts | 107° |
| 2026-05-01 12:37 | 42.16395 | 34.01664 | 33129 ft | 505 kts | 107° |
| 2026-05-01 12:38 | 42.15200 | 34.11021 | 33125 ft | 505 kts | 106° |
| 2026-05-01 12:38 | 42.14031 | 34.20311 | 33129 ft | 505 kts | 106° |
| 2026-05-01 12:39 | 42.12848 | 34.29650 | 33123 ft | 505 kts | 106° |
| 2026-05-01 12:39 | 42.11656 | 34.38980 | 33119 ft | 505 kts | 106° |
| 2026-05-01 12:40 | 42.10445 | 34.48231 | 33120 ft | 505 kts | 107° |
| 2026-05-01 12:40 | 42.09152 | 34.57532 | 33111 ft | 505 kts | 107° |
| 2026-05-01 12:41 | 42.07852 | 34.66830 | 33112 ft | 505 kts | 107° |
| 2026-05-01 12:41 | 42.06553 | 34.76142 | 33103 ft | 505 kts | 107° |
| 2026-05-01 12:42 | 42.05263 | 34.85360 | 33113 ft | 504 kts | 107° |
| 2026-05-01 12:42 | 42.04007 | 34.94693 | 33096 ft | 505 kts | 106° |
| 2026-05-01 12:43 | 42.02803 | 35.03863 | 33073 ft | 504 kts | 106° |
| 2026-05-01 12:43 | 42.01905 | 35.13333 | 33103 ft | 508 kts | 100° |
| 2026-05-01 12:44 | 42.01439 | 35.22840 | 33112 ft | 510 kts | 99° |
| 2026-05-01 12:45 | 42.00485 | 35.41752 | 33083 ft | 504 kts | 100° |
| 2026-05-01 12:45 | 41.99961 | 35.51186 | 33076 ft | 506 kts | 100° |
| 2026-05-01 12:46 | 41.99429 | 35.60597 | 33079 ft | 507 kts | 100° |
| 2026-05-01 12:46 | 41.98917 | 35.69598 | 33063 ft | 505 kts | 100° |
| 2026-05-01 12:47 | 41.98374 | 35.79029 | 33066 ft | 505 kts | 100° |
| 2026-05-01 12:47 | 41.97825 | 35.88418 | 33071 ft | 507 kts | 100° |
| 2026-05-01 12:48 | 41.97265 | 35.97867 | 33060 ft | 506 kts | 100° |
| 2026-05-01 12:48 | 41.96701 | 36.07265 | 33056 ft | 505 kts | 100° |
| 2026-05-01 12:49 | 41.96128 | 36.16642 | 33066 ft | 505 kts | 100° |
| 2026-05-01 12:49 | 41.95547 | 36.26046 | 33050 ft | 505 kts | 100° |
| 2026-05-01 12:50 | 41.94960 | 36.35443 | 33051 ft | 504 kts | 101° |
| 2026-05-01 12:50 | 41.94364 | 36.44835 | 33057 ft | 504 kts | 101° |
| 2026-05-01 12:51 | 41.93763 | 36.54180 | 33047 ft | 504 kts | 101° |
| 2026-05-01 12:52 | 41.92948 | 36.66687 | 33044 ft | 504 kts | 101° |
| 2026-05-01 12:52 | 41.92017 | 36.80706 | 33030 ft | 503 kts | 101° |
| 2026-05-01 12:53 | 41.91069 | 36.94751 | 33039 ft | 502 kts | 101° |
| 2026-05-01 12:54 | 41.90438 | 37.04027 | 33040 ft | 503 kts | 99° |
| 2026-05-01 12:54 | 41.90153 | 37.18168 | 33031 ft | 505 kts | 95° |
| 2026-05-01 12:55 | 41.89985 | 37.32298 | 33027 ft | 503 kts | 96° |
| 2026-05-01 12:56 | 41.89837 | 37.41716 | 33030 ft | 504 kts | 96° |
| 2026-05-01 12:56 | 41.89675 | 37.51072 | 33019 ft | 504 kts | 96° |
| 2026-05-01 12:57 | 41.89504 | 37.60511 | 33021 ft | 504 kts | 96° |
| 2026-05-01 12:57 | 41.89235 | 37.74589 | 33014 ft | 504 kts | 96° |
| 2026-05-01 12:58 | 41.89046 | 37.84029 | 33015 ft | 505 kts | 96° |
| 2026-05-01 12:59 | 41.88750 | 37.98127 | 33011 ft | 505 kts | 96° |
| 2026-05-01 12:59 | 41.88434 | 38.12307 | 33010 ft | 506 kts | 96° |
| 2026-05-01 13:00 | 41.88103 | 38.26413 | 32996 ft | 505 kts | 96° |
| 2026-05-01 13:01 | 41.87754 | 38.40511 | 33002 ft | 506 kts | 96° |
| 2026-05-01 13:02 | 41.87387 | 38.54659 | 33003 ft | 504 kts | 96° |
| 2026-05-01 13:07 | 41.84162 | 39.58612 | 32995 ft | 509 kts | 96° |
| 2026-05-01 13:08 | 41.83836 | 39.68108 | 32989 ft | 510 kts | 96° |